Terminal Aerodrome Forecast
Issued by NWS Blacksburg, VA

Home | Current Version | Previous Version | Text Only | Print | Product List | Glossary On
Versions: 1 2 3 4 5 6 7 8 9 10 11 12 13 14 15 16 17 18 19 20 21 22 23 24 25 26 27 28 29 30 31 32
000
FTUS41 KRNK 302320
TAFBLF
TAF
KBLF 302320Z 0100/0124 20011G23KT P6SM FEW060
     FM011500 19015G31KT P6SM -SHRA BKN040
     FM011700 20013G23KT 4SM SHRA VCTS OVC025CB
     FM012000 21014G25KT P6SM OVC060
     FM012300 23014G28KT P6SM SCT050=

USA.gov is the U.S. government's official web portal to all federal, state and local government web resources and services.